Time;durP1;ratioP1;P1;durP2;ratioP2;P2;SDS_P1;SDS_P2;PMS_P1;PMS_P2;Temp;Humidity;BMP_temperature;BMP_pressure;BME280_temperature;BME280_humidity;BME280_pressure;Samples;Min_cycle;Max_cycle;Signal;HPM_P1;HPM_P2
2023/01/19 00:01:06;;;;;;;13.63;7.80;;;;;;;;;;5094239;28;20738;-56
2023/01/19 00:03:32;;;;;;;13.17;8.33;;;;;;;;;;5094636;28;20242;-57
2023/01/19 00:05:58;;;;;;;12.37;7.90;;;;;;;;;;5076630;28;20402;-57
2023/01/19 00:08:25;;;;;;;8.13;6.93;;;;;;;;;;5078162;28;20918;-56
2023/01/19 00:10:52;;;;;;;8.90;7.17;;;;;;;;;;5084119;28;20632;-57
2023/01/19 00:13:18;;;;;;;10.67;8.13;;;;;;;;;;5083033;28;20260;-57
2023/01/19 00:15:46;;;;;;;13.07;8.40;;;;;;;;;;5089069;28;20259;-57
2023/01/19 00:18:13;;;;;;;10.90;8.47;;;;;;;;;;5082956;28;20340;-56
2023/01/19 00:20:39;;;;;;;14.37;6.97;;;;;;;;;;5074804;28;20234;-56
2023/01/19 00:23:06;;;;;;;13.17;8.87;;;;;;;;;;5075578;28;20233;-57
2023/01/19 00:25:33;;;;;;;11.87;8.27;;;;;;;;;;5080014;28;20245;-57
2023/01/19 00:28:00;;;;;;;9.80;8.13;;;;;;;;;;5082249;28;20241;-56
2023/01/19 00:30:26;;;;;;;15.63;8.23;;;;;;;;;;5078950;28;20241;-56
2023/01/19 00:32:54;;;;;;;12.83;7.17;;;;;;;;;;5084862;28;20382;-56
2023/01/19 00:35:20;;;;;;;11.50;7.83;;;;;;;;;;5086015;28;20782;-57
2023/01/19 00:37:47;;;;;;;12.17;7.73;;;;;;;;;;5075166;28;20233;-57
2023/01/19 00:40:14;;;;;;;11.83;7.37;;;;;;;;;;5074731;28;20233;-56
2023/01/19 00:42:39;;;;;;;9.27;7.47;;;;;;;;;;5074523;28;20722;-56
2023/01/19 00:45:06;;;;;;;9.03;6.90;;;;;;;;;;5078258;28;20286;-56
2023/01/19 00:47:33;;;;;;;9.43;7.80;;;;;;;;;;5086028;28;20617;-57
2023/01/19 00:50:01;;;;;;;9.00;7.20;;;;;;;;;;5078940;28;20319;-56
2023/01/19 00:52:27;;;;;;;8.73;7.43;;;;;;;;;;5079324;28;20242;-56
2023/01/19 00:54:53;;;;;;;11.90;8.47;;;;;;;;;;5077834;28;20236;-56
2023/01/19 00:57:20;;;;;;;11.17;7.70;;;;;;;;;;5084954;28;20319;-56
2023/01/19 00:59:46;;;;;;;10.73;7.63;;;;;;;;;;5077380;28;20249;-56
2023/01/19 01:02:12;;;;;;;10.00;7.70;;;;;;;;;;5091447;28;20233;-57
2023/01/19 01:04:39;;;;;;;8.23;7.20;;;;;;;;;;5082450;28;20237;-56
2023/01/19 01:07:07;;;;;;;11.47;8.60;;;;;;;;;;5084037;28;20241;-57
2023/01/19 01:09:33;;;;;;;10.10;7.63;;;;;;;;;;5084905;28;20260;-56
2023/01/19 01:12:00;;;;;;;11.00;8.60;;;;;;;;;;5066662;28;20324;-56
2023/01/19 01:14:26;;;;;;;10.43;7.83;;;;;;;;;;5073898;28;20934;-57
2023/01/19 01:16:53;;;;;;;11.93;8.40;;;;;;;;;;5082911;28;20316;-56
2023/01/19 01:19:20;;;;;;;18.93;9.47;;;;;;;;;;5085242;28;20236;-56
2023/01/19 01:21:47;;;;;;;14.53;9.13;;;;;;;;;;5065856;28;20607;-57
2023/01/19 01:24:15;;;;;;;11.77;7.77;;;;;;;;;;5068390;28;20233;-57
2023/01/19 01:26:42;;;;;;;11.20;7.93;;;;;;;;;;5084665;28;20236;-56
2023/01/19 01:29:08;;;;;;;11.70;8.37;;;;;;;;;;5076191;28;20339;-56
2023/01/19 01:31:35;;;;;;;12.93;8.73;;;;;;;;;;5079393;28;20233;-57
2023/01/19 01:34:01;;;;;;;10.83;8.70;;;;;;;;;;5078892;28;20847;-57
2023/01/19 01:36:31;;;;;;;12.20;8.63;;;;;;;;;;5086115;28;20325;-56
2023/01/19 01:38:57;;;;;;;11.30;8.37;;;;;;;;;;5077099;28;20316;-57
2023/01/19 01:41:26;;;;;;;13.90;8.30;;;;;;;;;;5076385;28;20233;-57
2023/01/19 01:43:56;;;;;;;16.00;9.60;;;;;;;;;;5084469;28;20290;-57
2023/01/19 01:46:24;;;;;;;12.47;9.20;;;;;;;;;;5080675;28;20238;-56
2023/01/19 01:48:54;;;;;;;13.20;8.67;;;;;;;;;;5085027;28;20752;-56
2023/01/19 01:51:25;;;;;;;11.30;8.53;;;;;;;;;;5072505;28;20231;-56
2023/01/19 01:53:55;;;;;;;17.50;8.83;;;;;;;;;;5084267;28;20232;-56
2023/01/19 01:56:24;;;;;;;12.97;8.67;;;;;;;;;;5082857;28;20320;-58
2023/01/19 01:58:53;;;;;;;15.77;8.77;;;;;;;;;;5078320;28;20312;-57
2023/01/19 02:04:04;;;;;;;10.40;8.77;;;;;;;;;;5073442;28;20244;-57
2023/01/19 02:06:31;;;;;;;15.17;8.53;;;;;;;;;;5059842;28;20809;-56
2023/01/19 02:14:29;;;;;;;12.70;8.67;;;;;;;;;;5073757;28;20243;-57
2023/01/19 02:16:55;;;;;;;13.83;8.67;;;;;;;;;;5092535;28;20310;-56
2023/01/19 02:19:24;;;;;;;12.07;8.63;;;;;;;;;;5091916;28;20241;-57
2023/01/19 02:21:53;;;;;;;11.37;8.33;;;;;;;;;;5086030;28;20758;-57
2023/01/19 02:24:22;;;;;;;9.33;8.20;;;;;;;;;;5081984;28;20229;-57
2023/01/19 02:26:49;;;;;;;11.43;8.23;;;;;;;;;;5073070;28;20229;-57
2023/01/19 02:29:18;;;;;;;11.63;8.43;;;;;;;;;;5085986;28;20240;-56
2023/01/19 02:31:45;;;;;;;15.33;9.57;;;;;;;;;;5085248;28;20721;-56
2023/01/19 02:34:14;;;;;;;12.97;8.90;;;;;;;;;;5089329;28;20281;-56
2023/01/19 02:36:42;;;;;;;15.23;10.50;;;;;;;;;;5086431;28;20749;-57
2023/01/19 02:39:10;;;;;;;13.10;9.17;;;;;;;;;;5087568;28;20294;-57
2023/01/19 02:41:41;;;;;;;12.60;9.37;;;;;;;;;;5085062;28;20233;-57
2023/01/19 02:44:09;;;;;;;15.33;9.80;;;;;;;;;;5081679;28;20265;-56
2023/01/19 02:46:35;;;;;;;11.57;9.67;;;;;;;;;;5081745;28;20656;-58
2023/01/19 02:49:02;;;;;;;12.80;8.73;;;;;;;;;;5085524;28;20263;-57
2023/01/19 02:51:29;;;;;;;14.67;8.70;;;;;;;;;;5076071;28;20234;-56
2023/01/19 02:54:15;;;;;;;13.30;9.70;;;;;;;;;;5082275;28;20236;-57
2023/01/19 02:56:49;;;;;;;14.07;9.20;;;;;;;;;;5081338;28;20901;-57
2023/01/19 02:59:22;;;;;;;12.73;9.47;;;;;;;;;;5072864;28;20237;-58
2023/01/19 03:01:55;;;;;;;13.57;8.77;;;;;;;;;;5084980;28;20225;-55
2023/01/19 03:04:24;;;;;;;10.70;9.33;;;;;;;;;;5082102;28;20228;-56
2023/01/19 03:06:54;;;;;;;11.00;9.43;;;;;;;;;;5075956;28;20788;-56
2023/01/19 03:09:26;;;;;;;16.53;9.77;;;;;;;;;;5078121;28;20274;-56
2023/01/19 03:12:02;;;;;;;15.03;9.53;;;;;;;;;;5079865;28;20378;-56
2023/01/19 03:14:30;;;;;;;17.63;9.97;;;;;;;;;;5078940;28;20232;-56
2023/01/19 03:16:59;;;;;;;13.57;10.27;;;;;;;;;;5076699;28;20237;-56
2023/01/19 03:19:27;;;;;;;14.43;10.53;;;;;;;;;;5079935;28;20347;-56
2023/01/19 03:21:56;;;;;;;12.63;10.37;;;;;;;;;;5080297;28;20233;-56
2023/01/19 03:24:24;;;;;;;12.83;11.03;;;;;;;;;;5077421;28;20249;-59
2023/01/19 03:26:55;;;;;;;13.87;10.90;;;;;;;;;;5070916;28;20234;-55
2023/01/19 03:29:24;;;;;;;17.53;9.63;;;;;;;;;;5074393;28;20259;-56
2023/01/19 03:31:52;;;;;;;14.73;10.10;;;;;;;;;;5075567;28;20228;-55
2023/01/19 03:34:22;;;;;;;12.10;9.60;;;;;;;;;;5079388;28;20725;-56
2023/01/19 03:36:51;;;;;;;17.83;10.93;;;;;;;;;;5073138;28;20320;-56
2023/01/19 03:39:21;;;;;;;13.20;10.93;;;;;;;;;;5074250;28;20837;-56
2023/01/19 03:41:48;;;;;;;15.80;10.20;;;;;;;;;;5080798;28;20752;-56
2023/01/19 03:44:16;;;;;;;14.07;10.83;;;;;;;;;;5073073;28;20257;-57
2023/01/19 03:46:44;;;;;;;12.67;10.47;;;;;;;;;;5067551;28;20285;-56
2023/01/19 03:49:11;;;;;;;15.40;10.63;;;;;;;;;;5076113;28;20241;-56
2023/01/19 03:51:38;;;;;;;15.70;11.60;;;;;;;;;;5076254;28;20244;-56
2023/01/19 03:54:06;;;;;;;15.93;11.00;;;;;;;;;;5085138;28;20233;-56
2023/01/19 03:56:32;;;;;;;13.50;10.00;;;;;;;;;;5089642;28;20331;-56
2023/01/19 03:58:59;;;;;;;19.67;11.93;;;;;;;;;;5076717;28;20243;-56
2023/01/19 04:01:26;;;;;;;19.50;11.23;;;;;;;;;;5091057;28;20248;-56
2023/01/19 04:03:54;;;;;;;14.73;11.50;;;;;;;;;;5078537;28;20284;-58
2023/01/19 04:06:21;;;;;;;19.67;11.83;;;;;;;;;;5078343;28;20253;-56
2023/01/19 04:08:48;;;;;;;18.13;12.00;;;;;;;;;;5078429;28;20293;-56
2023/01/19 04:11:15;;;;;;;17.07;12.57;;;;;;;;;;5072376;28;20234;-56
2023/01/19 04:13:42;;;;;;;16.97;11.70;;;;;;;;;;5080813;28;20232;-56
2023/01/19 04:16:09;;;;;;;19.50;11.87;;;;;;;;;;5079469;28;20251;-58
2023/01/19 04:18:36;;;;;;;15.00;11.20;;;;;;;;;;5081161;28;20225;-58
2023/01/19 04:21:05;;;;;;;13.43;10.73;;;;;;;;;;5079829;28;20236;-57
2023/01/19 04:23:32;;;;;;;13.37;10.83;;;;;;;;;;5064014;28;20245;-58
2023/01/19 04:26:00;;;;;;;16.53;11.80;;;;;;;;;;5056609;28;20903;-57
2023/01/19 04:28:27;;;;;;;14.90;12.07;;;;;;;;;;5071985;28;20264;-57
2023/01/19 04:30:54;;;;;;;18.43;12.10;;;;;;;;;;5074127;28;20245;-55
2023/01/19 04:33:21;;;;;;;18.13;11.77;;;;;;;;;;5076629;28;20267;-56
2023/01/19 04:35:48;;;;;;;16.07;11.50;;;;;;;;;;5071441;28;20864;-57
2023/01/19 04:38:16;;;;;;;19.83;11.07;;;;;;;;;;5075489;28;20240;-58
2023/01/19 04:40:43;;;;;;;15.60;11.37;;;;;;;;;;5072209;28;20257;-56
2023/01/19 04:43:10;;;;;;;16.97;11.53;;;;;;;;;;5070407;28;20245;-57
2023/01/19 04:45:37;;;;;;;16.40;12.40;;;;;;;;;;5073848;28;20255;-56
2023/01/19 04:48:04;;;;;;;17.33;12.20;;;;;;;;;;5073879;28;20341;-56
2023/01/19 04:50:31;;;;;;;14.73;11.80;;;;;;;;;;5080376;28;20918;-56
2023/01/19 04:52:58;;;;;;;16.63;12.40;;;;;;;;;;5075775;28;20262;-58
2023/01/19 04:55:26;;;;;;;18.37;12.53;;;;;;;;;;5079760;28;20229;-56
2023/01/19 04:57:53;;;;;;;14.87;11.43;;;;;;;;;;5085643;28;20233;-57
2023/01/19 05:00:20;;;;;;;21.70;12.30;;;;;;;;;;5086953;27;20268;-56
2023/01/19 05:02:47;;;;;;;16.93;11.70;;;;;;;;;;5085699;28;20251;-56
2023/01/19 05:05:14;;;;;;;11.57;10.30;;;;;;;;;;5078289;28;20228;-57
2023/01/19 05:07:40;;;;;;;14.20;10.67;;;;;;;;;;5087973;28;20290;-56
2023/01/19 05:10:07;;;;;;;16.40;11.20;;;;;;;;;;5086815;28;20229;-56
2023/01/19 05:12:35;;;;;;;19.70;12.67;;;;;;;;;;5087431;28;20227;-58
2023/01/19 05:15:02;;;;;;;15.47;11.43;;;;;;;;;;5078978;28;20236;-57
2023/01/19 05:17:29;;;;;;;15.13;11.77;;;;;;;;;;5085139;28;20239;-57
2023/01/19 05:19:55;;;;;;;13.37;11.87;;;;;;;;;;5084629;28;20238;-57
2023/01/19 05:22:23;;;;;;;16.43;11.00;;;;;;;;;;5085704;28;20324;-57
2023/01/19 05:24:49;;;;;;;17.90;12.27;;;;;;;;;;5084929;28;20788;-57
2023/01/19 05:27:16;;;;;;;14.93;11.13;;;;;;;;;;5079159;27;20328;-58
2023/01/19 05:29:44;;;;;;;16.67;11.93;;;;;;;;;;5077728;28;20258;-57
2023/01/19 05:32:12;;;;;;;16.87;12.20;;;;;;;;;;5081597;28;20635;-57
2023/01/19 05:34:39;;;;;;;13.23;10.77;;;;;;;;;;5068774;28;20269;-57
2023/01/19 05:37:06;;;;;;;14.17;11.13;;;;;;;;;;5068576;28;20248;-58
2023/01/19 05:39:33;;;;;;;16.27;11.73;;;;;;;;;;5076965;28;20241;-57
2023/01/19 05:41:59;;;;;;;15.83;11.43;;;;;;;;;;5080026;28;20306;-57
2023/01/19 05:44:26;;;;;;;15.83;11.73;;;;;;;;;;5072974;28;20241;-57
2023/01/19 05:46:54;;;;;;;15.17;11.30;;;;;;;;;;5079242;28;20746;-57
2023/01/19 05:49:20;;;;;;;14.87;11.67;;;;;;;;;;5075129;28;20233;-58
2023/01/19 05:51:47;;;;;;;14.47;10.80;;;;;;;;;;5080166;28;20453;-57
2023/01/19 05:54:14;;;;;;;13.77;10.57;;;;;;;;;;5077755;28;20316;-57
2023/01/19 05:56:41;;;;;;;16.33;11.67;;;;;;;;;;5081475;28;20229;-56
2023/01/19 05:59:08;;;;;;;14.87;11.77;;;;;;;;;;5078389;28;20308;-57
2023/01/19 06:01:36;;;;;;;15.47;10.77;;;;;;;;;;5087032;28;20719;-57
2023/01/19 06:04:04;;;;;;;16.13;11.43;;;;;;;;;;5080503;28;20240;-56
2023/01/19 06:06:30;;;;;;;15.57;10.90;;;;;;;;;;5076837;28;20233;-57
2023/01/19 06:08:57;;;;;;;14.07;10.90;;;;;;;;;;5077769;28;20233;-57
2023/01/19 06:11:24;;;;;;;18.07;10.93;;;;;;;;;;5079432;28;20715;-57
2023/01/19 06:13:51;;;;;;;17.00;11.67;;;;;;;;;;5084038;28;20225;-56
2023/01/19 06:16:18;;;;;;;17.10;11.93;;;;;;;;;;5075507;28;20240;-57
2023/01/19 06:18:44;;;;;;;19.30;12.30;;;;;;;;;;5081419;28;20228;-57
2023/01/19 06:21:13;;;;;;;14.10;10.67;;;;;;;;;;5082602;28;20239;-57
2023/01/19 06:23:39;;;;;;;15.83;11.47;;;;;;;;;;5072383;28;20228;-57
2023/01/19 06:26:06;;;;;;;14.13;10.67;;;;;;;;;;5082498;28;20277;-57
2023/01/19 06:28:32;;;;;;;13.53;11.17;;;;;;;;;;5085023;28;20651;-58
2023/01/19 06:30:59;;;;;;;14.13;10.93;;;;;;;;;;5073464;28;20431;-57
2023/01/19 06:33:26;;;;;;;12.23;9.27;;;;;;;;;;5073146;28;20355;-57
2023/01/19 06:35:53;;;;;;;15.83;10.53;;;;;;;;;;5071027;28;20239;-57
2023/01/19 06:38:21;;;;;;;15.73;11.47;;;;;;;;;;5082526;28;20240;-58
2023/01/19 06:40:52;;;;;;;15.30;11.00;;;;;;;;;;5077591;28;20286;-59
2023/01/19 06:43:20;;;;;;;15.63;11.27;;;;;;;;;;5072027;28;20236;-58
2023/01/19 06:45:46;;;;;;;18.97;11.03;;;;;;;;;;5072728;28;20312;-56
2023/01/19 06:48:13;;;;;;;15.73;11.33;;;;;;;;;;5079225;28;20785;-56
2023/01/19 06:50:40;;;;;;;15.87;10.93;;;;;;;;;;5082270;28;20260;-56
2023/01/19 06:53:06;;;;;;;13.00;10.43;;;;;;;;;;5073338;28;20241;-58
2023/01/19 06:55:35;;;;;;;17.37;10.40;;;;;;;;;;5083430;28;20809;-58
2023/01/19 06:58:02;;;;;;;13.97;9.93;;;;;;;;;;5072525;28;20233;-56
2023/01/19 07:00:28;;;;;;;14.07;10.10;;;;;;;;;;5077738;28;20237;-58
2023/01/19 07:02:55;;;;;;;18.40;11.67;;;;;;;;;;5079715;28;20725;-56
2023/01/19 07:05:22;;;;;;;20.07;10.27;;;;;;;;;;5080286;28;20233;-56
2023/01/19 07:07:51;;;;;;;12.90;9.90;;;;;;;;;;5081037;28;20233;-56
2023/01/19 07:10:18;;;;;;;14.37;10.20;;;;;;;;;;5076213;28;20308;-56
2023/01/19 07:12:46;;;;;;;15.33;10.67;;;;;;;;;;5071031;28;20427;-55
2023/01/19 07:15:13;;;;;;;13.40;10.07;;;;;;;;;;5077954;28;20329;-55
2023/01/19 07:17:40;;;;;;;14.00;10.13;;;;;;;;;;5076421;28;20257;-56
2023/01/19 07:20:08;;;;;;;15.63;10.43;;;;;;;;;;5068400;28;20309;-56
2023/01/19 07:22:34;;;;;;;11.67;10.37;;;;;;;;;;5076144;28;20225;-59
2023/01/19 07:25:01;;;;;;;16.27;9.87;;;;;;;;;;5074474;28;20273;-56
2023/01/19 07:27:27;;;;;;;14.80;9.63;;;;;;;;;;5077750;28;20698;-56
2023/01/19 07:29:55;;;;;;;17.47;10.77;;;;;;;;;;5075860;28;20250;-56
2023/01/19 07:32:22;;;;;;;14.67;9.83;;;;;;;;;;5077093;28;20312;-56
2023/01/19 07:34:49;;;;;;;12.47;10.13;;;;;;;;;;5079427;28;20249;-56
2023/01/19 07:37:15;;;;;;;12.20;10.13;;;;;;;;;;5079623;28;20232;-56
2023/01/19 07:39:42;;;;;;;11.57;9.93;;;;;;;;;;5082574;28;20234;-56
2023/01/19 07:42:08;;;;;;;15.37;10.23;;;;;;;;;;5084173;28;20761;-58
2023/01/19 07:44:35;;;;;;;15.93;10.93;;;;;;;;;;5082171;28;20234;-56
2023/01/19 07:47:05;;;;;;;11.83;10.47;;;;;;;;;;5085071;28;20305;-55
2023/01/19 07:49:31;;;;;;;13.67;10.43;;;;;;;;;;5090175;28;20229;-56
2023/01/19 07:51:58;;;;;;;13.73;10.60;;;;;;;;;;5073023;28;20309;-56
2023/01/19 07:54:24;;;;;;;11.27;10.00;;;;;;;;;;5083054;28;20301;-55
2023/01/19 07:56:53;;;;;;;14.50;10.07;;;;;;;;;;5079354;28;20233;-56
2023/01/19 07:59:20;;;;;;;14.60;9.43;;;;;;;;;;5083265;28;20311;-58
2023/01/19 08:01:47;;;;;;;13.80;9.53;;;;;;;;;;5083958;28;20324;-57
2023/01/19 08:04:17;;;;;;;15.20;10.87;;;;;;;;;;5082396;28;20236;-58
2023/01/19 08:06:45;;;;;;;14.30;9.33;;;;;;;;;;5080210;28;20693;-58
2023/01/19 08:09:11;;;;;;;13.37;9.33;;;;;;;;;;5074910;28;20230;-57
2023/01/19 08:11:38;;;;;;;9.90;8.47;;;;;;;;;;5076095;28;20236;-57
2023/01/19 08:14:05;;;;;;;15.27;9.27;;;;;;;;;;5081320;28;20254;-56
2023/01/19 08:16:31;;;;;;;12.47;9.17;;;;;;;;;;5081407;28;20855;-58
2023/01/19 08:18:58;;;;;;;10.13;8.67;;;;;;;;;;5080979;28;20976;-57
2023/01/19 08:21:27;;;;;;;14.83;8.83;;;;;;;;;;5081397;28;20229;-57
2023/01/19 08:23:53;;;;;;;14.33;9.37;;;;;;;;;;5078278;28;20313;-56
2023/01/19 08:26:22;;;;;;;13.57;9.33;;;;;;;;;;5072136;28;20233;-56
2023/01/19 08:28:49;;;;;;;13.13;9.97;;;;;;;;;;5076366;28;20756;-56
2023/01/19 08:31:16;;;;;;;12.47;8.77;;;;;;;;;;5073473;28;20292;-56
2023/01/19 08:33:43;;;;;;;13.17;7.87;;;;;;;;;;5079764;28;20227;-56
2023/01/19 08:36:09;;;;;;;13.97;10.37;;;;;;;;;;5080408;28;20286;-56
2023/01/19 08:38:40;;;;;;;14.67;9.27;;;;;;;;;;5084139;28;20325;-56
2023/01/19 08:41:06;;;;;;;10.33;8.50;;;;;;;;;;5078828;28;20233;-56
2023/01/19 08:43:33;;;;;;;17.70;9.63;;;;;;;;;;5079767;28;20778;-57
2023/01/19 08:45:59;;;;;;;10.40;8.63;;;;;;;;;;5077210;28;20321;-56
2023/01/19 08:48:26;;;;;;;12.43;8.77;;;;;;;;;;5073922;28;20233;-57
2023/01/19 08:50:53;;;;;;;14.80;9.43;;;;;;;;;;5076233;28;20259;-56
2023/01/19 08:53:22;;;;;;;11.37;8.23;;;;;;;;;;5076848;28;20302;-56
2023/01/19 08:55:50;;;;;;;9.93;8.20;;;;;;;;;;5073955;28;20272;-56
2023/01/19 08:58:17;;;;;;;11.43;8.17;;;;;;;;;;5079338;28;20236;-56
2023/01/19 09:00:43;;;;;;;12.27;8.40;;;;;;;;;;5075972;28;20813;-56
2023/01/19 09:03:12;;;;;;;11.57;7.73;;;;;;;;;;5075614;28;20322;-58
2023/01/19 09:05:39;;;;;;;9.57;8.20;;;;;;;;;;5080434;28;20325;-57
2023/01/19 09:08:08;;;;;;;11.20;8.63;;;;;;;;;;5079138;28;20241;-56
2023/01/19 09:10:36;;;;;;;12.43;8.03;;;;;;;;;;5074946;28;20901;-56
2023/01/19 09:13:04;;;;;;;11.47;6.97;;;;;;;;;;5082685;28;20233;-57
2023/01/19 09:15:32;;;;;;;12.10;8.20;;;;;;;;;;5079332;28;20241;-57
2023/01/19 09:17:59;;;;;;;10.37;8.27;;;;;;;;;;5073531;28;20685;-58
2023/01/19 09:20:26;;;;;;;10.00;7.23;;;;;;;;;;5065390;28;20305;-57
2023/01/19 09:22:52;;;;;;;13.27;7.83;;;;;;;;;;5079569;28;20252;-56
2023/01/19 09:25:19;;;;;;;9.20;7.03;;;;;;;;;;5075538;28;20244;-56
2023/01/19 09:27:45;;;;;;;10.63;7.83;;;;;;;;;;5076981;28;20658;-57
2023/01/19 09:30:14;;;;;;;11.83;8.03;;;;;;;;;;5079785;28;20621;-56
2023/01/19 09:32:41;;;;;;;13.77;8.70;;;;;;;;;;5078888;28;20232;-57
2023/01/19 09:35:08;;;;;;;10.97;7.03;;;;;;;;;;5082397;28;20678;-60
2023/01/19 09:37:35;;;;;;;10.67;7.60;;;;;;;;;;5077244;28;20234;-57
2023/01/19 09:40:01;;;;;;;11.30;7.47;;;;;;;;;;5080116;28;20511;-56
2023/01/19 09:42:33;;;;;;;13.00;8.37;;;;;;;;;;5076036;28;20601;-56
2023/01/19 09:45:00;;;;;;;9.40;7.43;;;;;;;;;;5079385;28;20241;-57
2023/01/19 09:47:29;;;;;;;8.43;7.43;;;;;;;;;;5085227;28;20240;-57
2023/01/19 09:49:58;;;;;;;8.00;6.83;;;;;;;;;;5086803;28;20229;-56
2023/01/19 09:52:25;;;;;;;10.00;8.00;;;;;;;;;;5084455;28;20876;-57
2023/01/19 09:54:53;;;;;;;11.87;8.57;;;;;;;;;;5080682;28;20237;-57
2023/01/19 09:57:20;;;;;;;7.87;6.40;;;;;;;;;;5070903;28;20317;-56
2023/01/19 09:59:49;;;;;;;12.90;7.63;;;;;;;;;;5075584;28;20304;-59
2023/01/19 10:02:25;;;;;;;8.23;6.37;;;;;;;;;;5080822;28;20241;-56
2023/01/19 10:04:58;;;;;;;7.07;6.23;;;;;;;;;;5076594;28;20720;-57
2023/01/19 10:07:34;;;;;;;8.20;6.70;;;;;;;;;;5075345;28;20256;-56
2023/01/19 10:10:13;;;;;;;11.40;7.80;;;;;;;;;;5079137;28;20302;-57
2023/01/19 10:12:44;;;;;;;9.67;7.00;;;;;;;;;;5085027;28;20238;-58
2023/01/19 10:15:17;;;;;;;9.80;7.50;;;;;;;;;;5074079;28;20324;-56
2023/01/19 10:17:51;;;;;;;8.73;7.37;;;;;;;;;;5078266;28;20313;-56
2023/01/19 10:20:23;;;;;;;8.47;6.80;;;;;;;;;;5080690;28;20276;-56
2023/01/19 10:22:50;;;;;;;23.40;8.23;;;;;;;;;;5081507;28;20234;-56
2023/01/19 10:25:19;;;;;;;9.40;7.70;;;;;;;;;;5072663;28;20254;-57
2023/01/19 10:27:46;;;;;;;9.67;6.97;;;;;;;;;;5080449;28;20718;-57
2023/01/19 10:30:16;;;;;;;10.87;6.63;;;;;;;;;;5073884;28;20310;-57
2023/01/19 10:32:44;;;;;;;16.30;7.00;;;;;;;;;;5076616;28;20245;-56
2023/01/19 10:35:20;;;;;;;11.10;7.30;;;;;;;;;;5080821;28;20985;-56
2023/01/19 10:37:49;;;;;;;14.17;7.47;;;;;;;;;;5081735;28;20726;-58
2023/01/19 10:40:19;;;;;;;12.00;7.20;;;;;;;;;;5081838;28;20315;-56
2023/01/19 10:42:46;;;;;;;10.00;6.57;;;;;;;;;;5076324;28;20963;-57
2023/01/19 10:45:15;;;;;;;11.33;7.13;;;;;;;;;;5082227;28;20306;-56
2023/01/19 10:47:42;;;;;;;7.37;6.57;;;;;;;;;;5077509;28;20270;-56
2023/01/19 10:50:22;;;;;;;12.67;7.40;;;;;;;;;;5077257;28;20238;-57
2023/01/19 10:52:51;;;;;;;12.60;7.37;;;;;;;;;;5071727;28;20230;-57
2023/01/19 10:55:24;;;;;;;10.90;7.43;;;;;;;;;;5078345;28;20276;-57
2023/01/19 10:57:52;;;;;;;7.20;5.97;;;;;;;;;;5072996;28;20311;-56
2023/01/19 11:00:29;;;;;;;9.80;7.27;;;;;;;;;;5067747;28;20237;-56
2023/01/19 11:02:56;;;;;;;9.70;7.13;;;;;;;;;;5070502;28;20236;-57
2023/01/19 11:05:24;;;;;;;10.43;7.50;;;;;;;;;;5074006;28;20234;-56
2023/01/19 11:07:52;;;;;;;13.23;8.03;;;;;;;;;;5084993;28;20255;-56
2023/01/19 11:10:23;;;;;;;16.27;7.10;;;;;;;;;;5080087;28;20292;-57
2023/01/19 11:12:59;;;;;;;10.43;7.23;;;;;;;;;;5080573;28;20238;-57
2023/01/19 11:15:30;;;;;;;7.50;6.47;;;;;;;;;;5081510;28;20638;-57
2023/01/19 11:17:56;;;;;;;8.23;6.57;;;;;;;;;;5084463;28;20651;-57
2023/01/19 11:20:24;;;;;;;10.60;7.40;;;;;;;;;;5074986;28;20666;-57
2023/01/19 11:23:05;;;;;;;9.00;6.60;;;;;;;;;;5077151;28;20751;-57
2023/01/19 11:25:32;;;;;;;11.40;7.73;;;;;;;;;;5072971;28;20658;-57
2023/01/19 11:27:59;;;;;;;15.93;8.57;;;;;;;;;;5077976;28;20524;-57
2023/01/19 11:30:27;;;;;;;9.93;7.83;;;;;;;;;;5076521;28;20227;-57
2023/01/19 11:32:55;;;;;;;8.60;6.43;;;;;;;;;;5076305;28;20233;-57
2023/01/19 11:35:35;;;;;;;10.57;7.03;;;;;;;;;;5075405;28;20265;-57
2023/01/19 11:38:22;;;;;;;13.10;7.93;;;;;;;;;;5077637;28;20229;-56
2023/01/19 11:40:54;;;;;;;10.00;7.43;;;;;;;;;;5073941;28;20695;-57
2023/01/19 11:43:21;;;;;;;10.83;7.50;;;;;;;;;;5079676;28;20313;-56
2023/01/19 11:45:48;;;;;;;8.67;7.00;;;;;;;;;;5080578;28;20255;-57
2023/01/19 11:48:20;;;;;;;10.43;6.83;;;;;;;;;;5084668;28;20233;-57
2023/01/19 11:50:48;;;;;;;9.33;7.60;;;;;;;;;;5070989;28;20248;-57
2023/01/19 11:53:18;;;;;;;8.37;6.67;;;;;;;;;;5077145;28;20226;-57
2023/01/19 11:55:48;;;;;;;8.37;6.47;;;;;;;;;;5080314;28;20312;-57
2023/01/19 11:58:17;;;;;;;9.97;6.63;;;;;;;;;;5083201;28;20256;-57
2023/01/19 12:00:45;;;;;;;7.50;6.53;;;;;;;;;;5074619;28;20257;-59
2023/01/19 12:03:15;;;;;;;10.30;7.83;;;;;;;;;;5073153;28;20225;-58
2023/01/19 12:05:44;;;;;;;7.40;6.67;;;;;;;;;;5072091;28;20295;-59
2023/01/19 12:08:14;;;;;;;9.07;7.10;;;;;;;;;;5070642;28;20939;-58
2023/01/19 12:10:42;;;;;;;9.13;6.73;;;;;;;;;;5067180;28;20372;-58
2023/01/19 12:13:17;;;;;;;9.97;6.97;;;;;;;;;;5073449;28;20588;-58
2023/01/19 12:15:45;;;;;;;9.17;6.50;;;;;;;;;;5080009;28;20237;-58
2023/01/19 12:18:18;;;;;;;9.23;6.87;;;;;;;;;;5073299;28;20233;-58
2023/01/19 12:20:47;;;;;;;8.53;7.73;;;;;;;;;;5073168;28;20228;-56
2023/01/19 12:23:18;;;;;;;7.70;6.93;;;;;;;;;;5073731;28;20800;-57
2023/01/19 12:25:51;;;;;;;10.67;7.40;;;;;;;;;;5076546;28;20739;-59
2023/01/19 12:28:18;;;;;;;10.70;8.13;;;;;;;;;;5067210;28;20231;-58
2023/01/19 12:30:47;;;;;;;9.67;6.80;;;;;;;;;;5075889;28;20326;-57
2023/01/19 12:33:21;;;;;;;9.77;7.83;;;;;;;;;;5075313;28;20313;-58
2023/01/19 12:35:55;;;;;;;36.37;10.30;;;;;;;;;;5075948;28;20237;-58
2023/01/19 12:38:41;;;;;;;10.77;7.53;;;;;;;;;;5075940;28;20352;-57
2023/01/19 12:41:16;;;;;;;11.77;7.47;;;;;;;;;;5066972;28;20755;-58
2023/01/19 12:43:43;;;;;;;8.30;6.67;;;;;;;;;;5072677;28;20242;-60
2023/01/19 12:46:20;;;;;;;7.43;6.13;;;;;;;;;;5077412;28;20331;-59
2023/01/19 12:48:46;;;;;;;9.57;7.27;;;;;;;;;;5078778;28;20224;-59
2023/01/19 12:51:22;;;;;;;18.50;7.37;;;;;;;;;;5071708;28;20322;-59
2023/01/19 12:53:51;;;;;;;8.80;7.27;;;;;;;;;;5073314;28;20241;-59
2023/01/19 12:56:18;;;;;;;8.93;7.00;;;;;;;;;;5078374;28;20745;-59
2023/01/19 12:58:48;;;;;;;8.50;6.97;;;;;;;;;;5083143;28;20257;-59
2023/01/19 13:01:15;;;;;;;13.67;8.17;;;;;;;;;;5076107;28;20261;-60
2023/01/19 13:03:44;;;;;;;8.10;7.07;;;;;;;;;;5079922;28;20724;-58
2023/01/19 13:06:11;;;;;;;9.40;7.23;;;;;;;;;;5075652;28;20253;-58
2023/01/19 13:08:56;;;;;;;8.83;6.63;;;;;;;;;;5069586;28;20241;-58
2023/01/19 13:11:23;;;;;;;8.97;7.73;;;;;;;;;;5052664;28;20223;-59
2023/01/19 13:14:08;;;;;;;8.83;7.60;;;;;;;;;;5054213;28;20227;-56
2023/01/19 13:16:54;;;;;;;12.73;7.63;;;;;;;;;;5052512;28;20303;-58
2023/01/19 13:19:28;;;;;;;10.30;6.87;;;;;;;;;;5070455;28;20230;-58
2023/01/19 13:21:55;;;;;;;11.83;7.23;;;;;;;;;;5078254;28;20224;-57
2023/01/19 13:24:22;;;;;;;14.10;7.27;;;;;;;;;;5076385;28;20234;-57
2023/01/19 13:26:54;;;;;;;13.90;7.77;;;;;;;;;;5072718;28;20233;-58
2023/01/19 13:29:25;;;;;;;11.10;6.63;;;;;;;;;;5069714;28;20282;-58
2023/01/19 13:31:53;;;;;;;8.63;6.30;;;;;;;;;;5053034;28;20234;-56
2023/01/19 13:34:22;;;;;;;9.67;7.17;;;;;;;;;;5056502;28;20294;-57
2023/01/19 13:36:52;;;;;;;7.93;6.50;;;;;;;;;;5072930;28;20561;-56
2023/01/19 13:39:28;;;;;;;10.70;7.03;;;;;;;;;;5070320;28;21784;-59
2023/01/19 13:41:56;;;;;;;10.20;7.93;;;;;;;;;;5076582;28;20696;-58
2023/01/19 13:44:25;;;;;;;8.07;6.93;;;;;;;;;;5077645;28;20304;-56
2023/01/19 13:46:52;;;;;;;11.27;7.60;;;;;;;;;;5061312;28;20235;-57
2023/01/19 13:49:21;;;;;;;11.40;7.33;;;;;;;;;;5047851;28;20231;-59
2023/01/19 13:52:02;;;;;;;8.13;6.77;;;;;;;;;;5054434;28;20325;-58
2023/01/19 13:54:30;;;;;;;8.07;7.23;;;;;;;;;;5048117;28;20946;-57
2023/01/19 13:56:57;;;;;;;10.70;7.13;;;;;;;;;;5052938;28;20581;-58
2023/01/19 13:59:23;;;;;;;11.37;7.50;;;;;;;;;;5081142;28;20233;-60
2023/01/19 14:01:52;;;;;;;8.30;6.73;;;;;;;;;;5076831;28;20233;-60
2023/01/19 14:04:26;;;;;;;8.63;7.57;;;;;;;;;;5076819;28;20626;-60
2023/01/19 14:06:54;;;;;;;10.93;7.40;;;;;;;;;;5081662;28;20329;-61
2023/01/19 14:09:21;;;;;;;10.10;7.03;;;;;;;;;;5062896;28;20265;-59
2023/01/19 14:12:05;;;;;;;7.30;6.07;;;;;;;;;;5075994;28;20243;-58
2023/01/19 14:14:34;;;;;;;9.17;7.53;;;;;;;;;;5069005;28;20241;-58
2023/01/19 14:17:01;;;;;;;8.47;7.57;;;;;;;;;;5079465;28;20237;-58
2023/01/19 14:19:27;;;;;;;10.53;8.40;;;;;;;;;;5075142;28;20241;-57
2023/01/19 14:21:58;;;;;;;11.93;9.67;;;;;;;;;;5052651;28;20741;-57
2023/01/19 14:24:28;;;;;;;13.47;9.13;;;;;;;;;;5057482;28;20235;-58
2023/01/19 14:27:06;;;;;;;9.87;8.03;;;;;;;;;;5053679;28;20268;-56
2023/01/19 14:29:34;;;;;;;11.17;8.50;;;;;;;;;;5046348;28;20238;-58
2023/01/19 14:32:05;;;;;;;11.30;9.50;;;;;;;;;;5060325;28;20241;-60
2023/01/19 14:34:33;;;;;;;10.80;9.27;;;;;;;;;;5076954;28;20259;-58
2023/01/19 14:36:59;;;;;;;10.20;9.10;;;;;;;;;;5076389;28;20330;-58
2023/01/19 14:39:27;;;;;;;10.20;8.47;;;;;;;;;;5077250;28;20283;-58
2023/01/19 14:41:55;;;;;;;11.90;10.53;;;;;;;;;;5080515;28;20229;-58
2023/01/19 14:44:26;;;;;;;10.87;9.17;;;;;;;;;;5068811;28;20230;-58